Time;durP1;ratioP1;P1;durP2;ratioP2;P2;SDS_P1;SDS_P2;PMS_P1;PMS_P2;Temp;Humidity;BMP_temperature;BMP_pressure;BME280_temperature;BME280_humidity;BME280_pressure;Samples;Min_cycle;Max_cycle;Signal;HPM_P1;HPM_P2
2021/07/05 00:00:24;;;;;;;;;;;;;;;13.71;100.00;95732.28;1052033;28;20380;-47
2021/07/05 00:00:54;;;;;;;;;;;;;;;13.68;100.00;95733.53;1051863;28;19919;-48
2021/07/05 00:01:25;;;;;;;;;;;;;;;13.71;100.00;95729.66;1052808;28;19930;-48
2021/07/05 00:01:55;;;;;;;;;;;;;;;13.70;100.00;95735.97;1052325;28;19913;-47
2021/07/05 00:02:25;;;;;;;;;;;;;;;13.71;100.00;95739.41;1052357;28;19920;-50
2021/07/05 00:02:56;;;;;;;;;;;;;;;13.71;100.00;95731.47;1052183;28;19912;-50
2021/07/05 00:03:26;;;;;;;;;;;;;;;13.71;100.00;95737.59;1052200;28;19946;-49
2021/07/05 00:03:56;;;;;;;;;;;;;;;13.69;100.00;95736.97;1052316;28;19966;-50
2021/07/05 00:04:27;;;;;;;;;;;;;;;13.72;100.00;95733.09;1052270;28;20236;-46
2021/07/05 00:04:57;;;;;;;;;;;;;;;13.71;100.00;95734.13;1052449;28;19920;-47
2021/07/05 00:05:27;;;;;;;;;;;;;;;13.71;100.00;95734.94;1051801;28;19918;-46
2021/07/05 00:05:58;;;;;;;;;;;;;;;13.73;100.00;95729.44;1052150;28;19912;-46
2021/07/05 00:06:28;;;;;;;;;;;;;;;13.71;100.00;95726.19;1051633;28;19916;-48
2021/07/05 00:06:58;;;;;;;;;;;;;;;13.68;100.00;95733.53;1052207;28;19912;-47
2021/07/05 00:07:29;;;;;;;;;;;;;;;13.68;100.00;95745.97;1052935;28;19904;-47
2021/07/05 00:07:59;;;;;;;;;;;;;;;13.65;100.00;95744.56;1053017;28;19908;-47
2021/07/05 00:08:29;;;;;;;;;;;;;;;13.65;100.00;95749.06;1053248;28;20005;-47
2021/07/05 00:08:59;;;;;;;;;;;;;;;13.67;100.00;95750.44;1052974;28;19960;-47
2021/07/05 00:09:30;;;;;;;;;;;;;;;13.67;100.00;95741.69;1052897;28;19915;-48
2021/07/05 00:10:00;;;;;;;;;;;;;;;13.65;100.00;95752.50;1052977;28;19908;-47
2021/07/05 00:10:31;;;;;;;;;;;;;;;13.65;100.00;95749.88;1052923;28;19908;-48
2021/07/05 00:11:01;;;;;;;;;;;;;;;13.63;100.00;95743.97;1052991;28;19911;-47
2021/07/05 00:11:31;;;;;;;;;;;;;;;13.64;100.00;95750.88;1052880;28;19908;-48
2021/07/05 00:12:02;;;;;;;;;;;;;;;13.72;100.00;95755.06;1052571;28;19912;-50
2021/07/05 00:12:33;;;;;;;;;;;;;;;13.71;100.00;95755.28;1051670;28;20333;-47
2021/07/05 00:13:03;;;;;;;;;;;;;;;13.70;100.00;95751.03;1052096;28;20002;-47
2021/07/05 00:13:33;;;;;;;;;;;;;;;13.68;100.00;95756.56;1051807;28;19926;-48
2021/07/05 00:14:04;;;;;;;;;;;;;;;13.70;100.00;95754.47;1051694;28;19955;-48
2021/07/05 00:14:34;;;;;;;;;;;;;;;13.71;100.00;95758.75;1052165;28;19921;-49
2021/07/05 00:15:05;;;;;;;;;;;;;;;13.71;100.00;95745.53;1053017;28;20033;-47
2021/07/05 00:15:35;;;;;;;;;;;;;;;13.72;100.00;95751.63;1053262;28;19916;-51
2021/07/05 00:16:05;;;;;;;;;;;;;;;13.71;100.00;95750.81;1052837;28;19911;-47
2021/07/05 00:16:37;;;;;;;;;;;;;;;13.73;100.00;95745.31;1052898;28;19912;-47
2021/07/05 00:17:08;;;;;;;;;;;;;;;13.75;100.00;95748.53;1052883;28;19916;-48
2021/07/05 00:17:38;;;;;;;;;;;;;;;13.75;100.00;95745.88;1053051;28;19912;-47
2021/07/05 00:18:08;;;;;;;;;;;;;;;13.68;100.00;95746.78;1053348;28;19912;-47
2021/07/05 00:18:38;;;;;;;;;;;;;;;13.73;100.00;95751.38;1053140;28;19974;-48
2021/07/05 00:19:09;;;;;;;;;;;;;;;13.72;100.00;95743.69;1053273;28;19908;-47
2021/07/05 00:19:39;;;;;;;;;;;;;;;13.72;100.00;95738.38;1052902;28;19912;-50
2021/07/05 00:20:09;;;;;;;;;;;;;;;13.73;100.00;95740.00;1052999;28;19919;-48
2021/07/05 00:20:41;;;;;;;;;;;;;;;13.74;100.00;95742.44;1052599;28;19912;-49
2021/07/05 00:21:11;;;;;;;;;;;;;;;13.72;100.00;95739.19;1048051;28;19919;-48
2021/07/05 00:21:41;;;;;;;;;;;;;;;13.71;100.00;95732.28;1051690;28;20435;-47
2021/07/05 00:22:11;;;;;;;;;;;;;;;13.73;100.00;95735.50;1051612;28;20006;-51
2021/07/05 00:22:42;;;;;;;;;;;;;;;13.72;100.00;95735.75;1051771;28;19954;-51
2021/07/05 00:23:12;;;;;;;;;;;;;;;13.72;100.00;95727.81;1051460;28;20400;-49
2021/07/05 00:23:42;;;;;;;;;;;;;;;13.71;100.00;95727.00;1051307;28;19931;-47
2021/07/05 00:24:13;;;;;;;;;;;;;;;13.71;100.00;95727.00;1051213;28;19923;-48
2021/07/05 00:24:43;;;;;;;;;;;;;;;13.70;100.00;95724.59;1051348;28;19978;-50
2021/07/05 00:25:13;;;;;;;;;;;;;;;13.69;100.00;95726.41;1050965;28;20280;-47
2021/07/05 00:25:44;;;;;;;;;;;;;;;13.71;100.00;95729.66;1051339;28;20277;-49
2021/07/05 00:26:14;;;;;;;;;;;;;;;13.72;100.00;95722.50;1051085;28;20006;-49
2021/07/05 00:26:44;;;;;;;;;;;;;;;13.67;100.00;95723.19;1051896;28;19916;-48
2021/07/05 00:27:15;;;;;;;;;;;;;;;13.64;100.00;95721.00;1051061;28;19959;-49
2021/07/05 00:27:45;;;;;;;;;;;;;;;13.65;100.00;95718.13;1055948;28;20330;-48
2021/07/05 00:28:15;;;;;;;;;;;;;;;13.68;100.00;95722.16;1055915;28;19924;-48
2021/07/05 00:28:46;;;;;;;;;;;;;;;13.68;100.00;95719.53;1056178;28;19916;-48
2021/07/05 00:29:16;;;;;;;;;;;;;;;13.68;100.00;95722.97;1060060;27;20280;-50
2021/07/05 00:29:46;;;;;;;;;;;;;;;13.67;100.00;95726.63;1052249;28;19917;-49
2021/07/05 00:30:17;;;;;;;;;;;;;;;13.67;100.00;95734.56;1052084;28;19928;-46
2021/07/05 00:30:47;;;;;;;;;;;;;;;13.67;100.00;95728.47;1052259;28;20372;-46
2021/07/05 00:31:17;;;;;;;;;;;;;;;13.66;100.00;95726.84;1052165;28;19930;-47
2021/07/05 00:31:48;;;;;;;;;;;;;;;13.69;100.00;95729.06;1052109;28;19920;-48
2021/07/05 00:32:18;;;;;;;;;;;;;;;13.71;100.00;95737.59;1052024;28;19997;-47
2021/07/05 00:32:48;;;;;;;;;;;;;;;13.69;100.00;95729.06;1052203;28;19924;-49
2021/07/05 00:33:19;;;;;;;;;;;;;;;13.68;100.00;95738.03;1052780;28;19969;-48
2021/07/05 00:33:49;;;;;;;;;;;;;;;13.67;100.00;95739.06;1053433;28;19904;-48
2021/07/05 00:34:19;;;;;;;;;;;;;;;13.66;100.00;95737.44;1052918;28;20364;-48
2021/07/05 00:34:50;;;;;;;;;;;;;;;13.62;100.00;95731.78;1053241;28;19919;-48
2021/07/05 00:35:21;;;;;;;;;;;;;;;13.58;100.00;95741.19;1053145;28;19912;-48
2021/07/05 00:35:51;;;;;;;;;;;;;;;13.58;100.00;95727.97;1053371;28;20305;-47
2021/07/05 00:36:22;;;;;;;;;;;;;;;13.58;100.00;95732.47;1053197;28;19951;-48
2021/07/05 00:36:52;;;;;;;;;;;;;;;13.57;100.00;95726.34;1053190;28;19916;-47
2021/07/05 00:37:22;;;;;;;;;;;;;;;13.56;100.00;95729.22;1053118;28;19916;-47
2021/07/05 00:37:53;;;;;;;;;;;;;;;13.53;100.00;95727.84;1052930;28;19908;-47
2021/07/05 00:38:23;;;;;;;;;;;;;;;13.47;100.00;95729.53;1052335;28;20407;-47
2021/07/05 00:38:54;;;;;;;;;;;;;;;13.46;100.00;95725.25;1055962;28;20342;-48
2021/07/05 00:39:24;;;;;;;;;;;;;;;13.49;100.00;95730.09;1055894;28;20308;-47
2021/07/05 00:39:54;;;;;;;;;;;;;;;13.46;100.00;95724.47;1055735;28;19915;-46
2021/07/05 00:40:25;;;;;;;;;;;;;;;13.52;100.00;95733.34;1055990;28;19931;-48
2021/07/05 00:40:55;;;;;;;;;;;;;;;13.51;100.00;95732.53;1052029;28;20006;-47
2021/07/05 00:41:29;;;;;;;;;;;;;;;13.51;100.00;95735.19;1051896;28;20236;-47
2021/07/05 00:41:59;;;;;;;;;;;;;;;13.50;100.00;95733.59;1053015;28;20015;-50
2021/07/05 00:42:29;;;;;;;;;;;;;;;13.48;100.00;95727.69;1053223;28;19915;-47
2021/07/05 00:43:00;;;;;;;;;;;;;;;13.48;100.00;95735.63;1052961;28;19937;-47
2021/07/05 00:43:31;;;;;;;;;;;;;;;13.45;100.00;95723.69;1052819;28;19916;-46
2021/07/05 00:44:01;;;;;;;;;;;;;;;13.44;100.00;95732.63;1052900;28;19908;-47
2021/07/05 00:44:31;;;;;;;;;;;;;;;13.47;100.00;95724.25;1052693;28;19912;-50
2021/07/05 00:45:03;;;;;;;;;;;;;;;13.46;100.00;95725.25;1053245;28;20356;-46
2021/07/05 00:45:34;;;;;;;;;;;;;;;13.45;100.00;95725.50;1052781;28;19920;-48
2021/07/05 00:46:04;;;;;;;;;;;;;;;13.45;100.00;95721.03;1052922;28;19908;-48
2021/07/05 00:46:34;;;;;;;;;;;;;;;13.45;100.00;95723.69;1052927;28;19920;-47
2021/07/05 00:47:05;;;;;;;;;;;;;;;13.43;100.00;95730.22;1052774;28;20016;-49
2021/07/05 00:47:35;;;;;;;;;;;;;;;13.41;100.00;95727.00;1053124;28;20317;-48
2021/07/05 00:48:05;;;;;;;;;;;;;;;13.42;100.00;95729.41;1053247;28;19912;-48
2021/07/05 00:48:36;;;;;;;;;;;;;;;13.40;100.00;95722.72;1052733;28;19912;-50
2021/07/05 00:49:06;;;;;;;;;;;;;;;13.41;100.00;95725.13;1052668;28;19916;-48
2021/07/05 00:49:36;;;;;;;;;;;;;;;13.38;100.00;95725.59;1052983;28;19966;-51
2021/07/05 00:50:08;;;;;;;;;;;;;;;13.42;100.00;95728.59;1048654;28;19923;-49
2021/07/05 00:50:38;;;;;;;;;;;;;;;13.43;100.00;95725.72;1052934;28;19959;-47
2021/07/05 00:51:09;;;;;;;;;;;;;;;13.43;100.00;95731.00;1056997;28;19915;-48
2021/07/05 00:51:39;;;;;;;;;;;;;;;13.42;100.00;95729.41;1057262;28;19947;-47
2021/07/05 00:52:09;;;;;;;;;;;;;;;13.44;100.00;95732.63;1061130;28;20431;-51
2021/07/05 00:52:40;;;;;;;;;;;;;;;13.44;100.00;95735.28;1060813;27;19918;-49
2021/07/05 00:53:10;;;;;;;;;;;;;;;13.45;100.00;95731.59;1053361;28;19911;-48
2021/07/05 00:53:41;;;;;;;;;;;;;;;13.40;100.00;95725.38;1053172;28;20280;-47
2021/07/05 00:54:11;;;;;;;;;;;;;;;13.44;100.00;95729.97;1052873;28;20002;-49
2021/07/05 00:54:41;;;;;;;;;;;;;;;13.47;100.00;95732.19;1053079;28;19919;-47
2021/07/05 00:55:12;;;;;;;;;;;;;;;13.47;100.00;95732.19;1052701;28;20281;-46
2021/07/05 00:55:43;;;;;;;;;;;;;;;13.46;100.00;95725.25;1051754;28;20011;-50
2021/07/05 00:56:13;;;;;;;;;;;;;;;13.48;100.00;95731.16;1052572;28;19911;-47
2021/07/05 00:56:43;;;;;;;;;;;;;;;13.47;100.00;95732.19;1055727;28;19955;-49
2021/07/05 00:57:20;;;;;;;;;;;;;;;13.48;100.00;95732.97;1061233;27;19912;-48
2021/07/05 00:57:50;;;;;;;;;;;;;;;13.46;100.00;95727.13;1057089;28;19912;-47
2021/07/05 00:58:21;;;;;;;;;;;;;;;13.44;100.00;95724.69;1055916;28;19965;-48
2021/07/05 00:58:51;;;;;;;;;;;;;;;13.46;100.00;95727.13;1052828;28;19959;-47
2021/07/05 00:59:21;;;;;;;;;;;;;;;13.45;100.00;95728.13;1052595;28;19912;-49
2021/07/05 00:59:52;;;;;;;;;;;;;;;13.46;100.00;95722.63;1053131;28;19916;-48
2021/07/05 01:00:23;;;;;;;;;;;;;;;13.47;100.00;95726.88;1052501;28;19958;-46
2021/07/05 01:00:53;;;;;;;;;;;;;;;13.46;100.00;95729.75;1052762;28;19977;-47
2021/07/05 01:01:24;;;;;;;;;;;;;;;13.47;100.00;95723.44;1052969;28;20341;-48
2021/07/05 01:01:54;;;;;;;;;;;;;;;13.49;100.00;95729.31;1052872;28;19912;-46
2021/07/05 01:02:25;;;;;;;;;;;;;;;13.51;100.00;95721.94;1051514;28;19912;-47
2021/07/05 01:02:55;;;;;;;;;;;;;;;13.50;100.00;95726.44;1052208;28;19976;-46
2021/07/05 01:03:26;;;;;;;;;;;;;;;13.47;100.00;95721.59;1057241;27;19936;-47
2021/07/05 01:03:56;;;;;;;;;;;;;;;13.42;100.00;95721.47;1057368;28;20398;-49
2021/07/05 01:04:26;;;;;;;;;;;;;;;13.37;100.00;95723.97;1057093;28;19976;-48
2021/07/05 01:04:57;;;;;;;;;;;;;;;13.41;100.00;95721.69;1057369;28;19915;-47
2021/07/05 01:05:27;;;;;;;;;;;;;;;13.39;100.00;95718.44;1057459;28;19978;-48
2021/07/05 01:05:57;;;;;;;;;;;;;;;13.42;100.00;95724.13;1057373;28;20264;-46
2021/07/05 01:06:27;;;;;;;;;;;;;;;13.43;100.00;95723.06;1057377;28;19956;-47
2021/07/05 01:06:58;;;;;;;;;;;;;;;13.42;100.00;95724.13;1057085;28;20711;-48
2021/07/05 01:07:30;;;;;;;;;;;;;;;13.42;100.00;95728.59;1057352;28;19932;-47
2021/07/05 01:08:00;;;;;;;;;;;;;;;13.43;100.00;95728.34;1057291;28;19915;-49
2021/07/05 01:08:30;;;;;;;;;;;;;;;13.42;100.00;95724.13;1057213;28;19977;-48
2021/07/05 01:09:01;;;;;;;;;;;;;;;13.45;100.00;95730.78;1061237;28;20051;-49
2021/07/05 01:09:31;;;;;;;;;;;;;;;13.44;100.00;95729.97;1061158;28;20362;-49
2021/07/05 01:10:01;;;;;;;;;;;;;;;13.45;100.00;95726.31;1049179;28;19912;-47
2021/07/05 01:10:32;;;;;;;;;;;;;;;13.43;100.00;95722.28;1048503;28;19919;-48
2021/07/05 01:11:02;;;;;;;;;;;;;;;13.43;100.00;95723.06;1044434;28;19913;-49
2021/07/05 01:11:32;;;;;;;;;;;;;;;13.43;100.00;95725.72;1044593;28;19952;-48
2021/07/05 01:12:03;;;;;;;;;;;;;;;13.43;100.00;95722.28;1048869;28;19917;-50
2021/07/05 01:12:33;;;;;;;;;;;;;;;13.39;100.00;95724.56;1048877;28;19982;-49
2021/07/05 01:13:04;;;;;;;;;;;;;;;13.39;100.00;95721.09;1048946;28;19909;-49
2021/07/05 01:13:34;;;;;;;;;;;;;;;13.38;100.00;95717.66;1048972;28;19915;-50
2021/07/05 01:14:04;;;;;;;;;;;;;;;13.40;100.00;95720.06;1048953;28;19912;-47
2021/07/05 01:14:35;;;;;;;;;;;;;;;13.37;100.00;95720.53;1048745;28;20417;-50
2021/07/05 01:15:06;;;;;;;;;;;;;;;13.40;100.00;95723.50;1048817;28;20256;-47
2021/07/05 01:15:36;;;;;;;;;;;;;;;13.42;100.00;95718.84;1048950;28;19958;-48
2021/07/05 01:16:07;;;;;;;;;;;;;;;13.41;100.00;95719.06;1049051;28;20315;-48
2021/07/05 01:16:37;;;;;;;;;;;;;;;13.41;100.00;95719.06;1048965;28;19915;-51
2021/07/05 01:17:10;;;;;;;;;;;;;;;13.41;100.00;95717.22;1048820;28;19913;-48
2021/07/05 01:17:40;;;;;;;;;;;;;;;13.43;100.00;95717.78;1052816;28;19916;-47
2021/07/05 01:18:11;;;;;;;;;;;;;;;13.43;100.00;95715.13;1052961;28;20292;-47
2021/07/05 01:18:41;;;;;;;;;;;;;;;13.43;100.00;95720.44;1052761;28;19916;-48
2021/07/05 01:19:11;;;;;;;;;;;;;;;13.42;100.00;95718.84;1052858;28;19908;-51
2021/07/05 01:19:43;;;;;;;;;;;;;;;13.45;100.00;95722.84;1048657;28;19934;-47
2021/07/05 01:20:15;;;;;;;;;;;;;;;13.45;100.00;95722.84;1052751;28;19927;-48
2021/07/05 01:20:45;;;;;;;;;;;;;;;13.44;100.00;95722.06;1055143;28;19997;-47
2021/07/05 01:21:15;;;;;;;;;;;;;;;13.45;100.00;95721.03;1060880;28;19944;-50
2021/07/05 01:21:45;;;;;;;;;;;;;;;13.46;100.00;95724.47;1060864;28;19949;-48
2021/07/05 01:22:16;;;;;;;;;;;;;;;13.48;100.00;95717.09;1053240;28;19927;-47
2021/07/05 01:22:46;;;;;;;;;;;;;;;13.48;100.00;95723.22;1053041;28;19912;-50
2021/07/05 01:23:16;;;;;;;;;;;;;;;13.49;100.00;95721.38;1053181;28;20002;-48
2021/07/05 01:23:47;;;;;;;;;;;;;;;13.50;100.00;95721.16;1053158;28;20340;-47
2021/07/05 01:24:17;;;;;;;;;;;;;;;13.46;100.00;95719.97;1053006;28;19923;-50
2021/07/05 01:24:48;;;;;;;;;;;;;;;13.54;100.00;95721.50;1053895;28;19915;-51
2021/07/05 01:25:20;;;;;;;;;;;;;;;13.52;100.00;95718.28;1054042;28;19908;-48
2021/07/05 01:25:52;;;;;;;;;;;;;;;13.53;100.00;95721.72;1053981;28;19904;-50
2021/07/05 01:26:22;;;;;;;;;;;;;;;13.53;100.00;95713.78;1053918;28;19920;-48
2021/07/05 01:26:52;;;;;;;;;;;;;;;13.53;100.00;95719.91;1053535;28;20360;-51
2021/07/05 01:27:23;;;;;;;;;;;;;;;13.55;100.00;95714.41;1053539;28;19916;-51
2021/07/05 01:27:53;;;;;;;;;;;;;;;13.54;100.00;95713.56;1053524;28;19912;-47
2021/07/05 01:28:24;;;;;;;;;;;;;;;13.49;100.00;95713.44;1053592;28;19966;-49
2021/07/05 01:28:54;;;;;;;;;;;;;;;13.49;100.00;95714.25;1053454;28;20410;-50
2021/07/05 01:29:24;;;;;;;;;;;;;;;13.50;100.00;95710.56;1053572;28;19908;-48
2021/07/05 01:29:55;;;;;;;;;;;;;;;13.48;100.00;95710.00;1053401;28;19912;-48
2021/07/05 01:30:25;;;;;;;;;;;;;;;13.50;100.00;95709.78;1053215;28;19912;-49
2021/07/05 01:30:56;;;;;;;;;;;;;;;13.48;100.00;95712.66;1053197;28;19930;-47
2021/07/05 01:31:26;;;;;;;;;;;;;;;13.52;100.00;95709.56;1052990;28;19973;-48
2021/07/05 01:31:56;;;;;;;;;;;;;;;13.53;100.00;95714.63;1053887;28;19923;-48
2021/07/05 01:32:27;;;;;;;;;;;;;;;13.60;100.00;95698.66;1054022;28;19955;-51
2021/07/05 01:33:01;;;;;;;;;;;;;;;13.64;100.00;95702.47;1053978;28;19944;-51
2021/07/05 01:33:31;;;;;;;;;;;;;;;13.65;100.00;95702.25;1062077;27;20015;-47
2021/07/05 01:34:02;;;;;;;;;;;;;;;13.66;100.00;95710.97;1062081;27;20387;-51
2021/07/05 01:34:32;;;;;;;;;;;;;;;13.63;100.00;95714.06;1061850;27;20352;-51
2021/07/05 01:35:03;;;;;;;;;;;;;;;13.59;100.00;95704.97;1061611;27;19912;-51
2021/07/05 01:35:34;;;;;;;;;;;;;;;13.56;100.00;95700.13;1053825;28;19915;-50
2021/07/05 01:36:04;;;;;;;;;;;;;;;13.55;100.00;95701.19;1053622;28;19911;-50
2021/07/05 01:36:34;;;;;;;;;;;;;;;13.58;100.00;95706.81;1053589;28;20049;-51
2021/07/05 01:37:05;;;;;;;;;;;;;;;13.59;100.00;95702.31;1053640;28;19900;-49
2021/07/05 01:37:35;;;;;;;;;;;;;;;13.54;100.00;95704.84;1053610;28;19909;-50
2021/07/05 01:38:23;;;;;;;;;;;;;;;13.52;100.00;95699.78;1054021;28;19911;-51
2021/07/05 01:38:54;;;;;;;;;;;;;;;13.57;100.00;95704.38;1053882;28;20371;-51
2021/07/05 01:39:24;;;;;;;;;;;;;;;13.54;100.00;95703.00;1053577;28;19951;-47
2021/07/05 01:39:55;;;;;;;;;;;;;;;13.56;100.00;95702.75;1053630;28;19904;-47
2021/07/05 01:40:25;;;;;;;;;;;;;;;13.56;100.00;95706.25;1053722;28;19904;-48
2021/07/05 01:40:56;;;;;;;;;;;;;;;13.57;100.00;95707.03;1053591;28;20413;-50
2021/07/05 01:41:27;;;;;;;;;;;;;;;13.57;100.00;95704.38;1053953;28;19911;-49
2021/07/05 01:41:57;;;;;;;;;;;;;;;13.55;100.00;95707.25;1053655;28;20376;-48
2021/07/05 01:42:27;;;;;;;;;;;;;;;13.57;100.00;95707.03;1053447;28;19904;-50
2021/07/05 01:42:59;;;;;;;;;;;;;;;13.55;100.00;95711.75;1053865;28;19950;-51
2021/07/05 01:43:29;;;;;;;;;;;;;;;13.56;100.00;95710.69;1053917;28;19948;-50
2021/07/05 01:43:59;;;;;;;;;;;;;;;13.57;100.00;95705.19;1054004;28;19967;-49
2021/07/05 01:44:30;;;;;;;;;;;;;;;13.57;100.00;95714.97;1053558;28;19957;-48
2021/07/05 01:45:00;;;;;;;;;;;;;;;13.55;100.00;95703.81;1053871;28;19900;-49
2021/07/05 01:45:31;;;;;;;;;;;;;;;13.55;100.00;95711.75;1053807;28;19953;-50
2021/07/05 01:46:02;;;;;;;;;;;;;;;13.52;100.00;95701.63;1053880;28;19900;-51
2021/07/05 01:46:32;;;;;;;;;;;;;;;13.52;100.00;95709.56;1053709;28;19911;-48
2021/07/05 01:47:03;;;;;;;;;;;;;;;13.52;100.00;95706.91;1053812;28;19904;-51
2021/07/05 01:47:33;;;;;;;;;;;;;;;13.50;100.00;95710.56;1053905;28;19905;-50
2021/07/05 01:48:03;;;;;;;;;;;;;;;13.51;100.00;95716.66;1053836;28;19905;-49
2021/07/05 01:48:34;;;;;;;;;;;;;;;13.48;100.00;95710.00;1053773;28;19955;-49
2021/07/05 01:49:04;;;;;;;;;;;;;;;13.48;100.00;95707.34;1053802;28;19900;-48
2021/07/05 01:49:34;;;;;;;;;;;;;;;13.46;100.00;95713.91;1054014;28;19915;-47
2021/07/05 01:50:05;;;;;;;;;;;;;;;13.45;100.00;95706.97;1053891;28;19904;-47
2021/07/05 01:50:36;;;;;;;;;;;;;;;13.43;100.00;95701.91;1053634;28;19905;-49
2021/07/05 01:51:06;;;;;;;;;;;;;;;13.42;100.00;95710.91;1053936;28;19901;-47
2021/07/05 01:51:36;;;;;;;;;;;;;;;13.41;100.00;95706.63;1053851;28;19904;-51
2021/07/05 01:52:07;;;;;;;;;;;;;;;13.40;100.00;95702.38;1053822;28;19904;-47
2021/07/05 01:52:37;;;;;;;;;;;;;;;13.38;100.00;95706.28;1053427;28;19981;-47
2021/07/05 01:53:07;;;;;;;;;;;;;;;13.35;100.00;95702.22;1053813;28;20002;-47
2021/07/05 01:53:38;;;;;;;;;;;;;;;13.33;100.00;95702.47;1054001;28;19904;-47
2021/07/05 01:54:10;;;;;;;;;;;;;;;13.32;100.00;95698.16;1053802;28;19915;-47
2021/07/05 01:54:40;;;;;;;;;;;;;;;13.32;100.00;95700.81;1053300;28;19908;-46
2021/07/05 01:55:11;;;;;;;;;;;;;;;13.29;100.00;95700.44;1053475;28;19916;-51
2021/07/05 01:55:41;;;;;;;;;;;;;;;13.30;100.00;95696.75;1053546;28;19919;-51
2021/07/05 01:56:11;;;;;;;;;;;;;;;13.31;100.00;95696.53;1053476;28;19908;-47
2021/07/05 01:56:45;;;;;;;;;;;;;;;13.31;100.00;95703.66;1053003;28;19919;-50
2021/07/05 01:57:24;;;;;;;;;;;;;;;13.30;100.00;95699.41;1056597;28;19923;-51
2021/07/05 01:57:55;;;;;;;;;;;;;;;13.27;100.00;95691.91;1053366;28;19957;-50
2021/07/05 01:58:25;;;;;;;;;;;;;;;13.27;100.00;95697.19;1053344;28;20049;-47
2021/07/05 01:58:55;;;;;;;;;;;;;;;13.28;100.00;95701.47;1053326;28;19912;-47
2021/07/05 01:59:26;;;;;;;;;;;;;;;13.27;100.00;95698.03;1053814;28;20022;-49
2021/07/05 01:59:57;;;;;;;;;;;;;;;13.27;100.00;95699.84;1053533;28;19912;-50
2021/07/05 02:00:27;;;;;;;;;;;;;;;13.24;100.00;95698.47;1053751;28;19919;-51
2021/07/05 02:00:58;;;;;;;;;;;;;;;13.25;100.00;95701.91;1053758;28;19920;-51
2021/07/05 02:01:30;;;;;;;;;;;;;;;13.24;100.00;95703.75;1053857;28;19900;-50
2021/07/05 02:02:00;;;;;;;;;;;;;;;13.22;100.00;95702.34;1053872;28;20372;-49
2021/07/05 02:02:30;;;;;;;;;;;;;;;13.23;100.00;95699.50;1053736;28;19912;-51
2021/07/05 02:03:01;;;;;;;;;;;;;;;13.23;100.00;95690.78;1053731;28;19916;-49
2021/07/05 02:03:31;;;;;;;;;;;;;;;13.22;100.00;95691.78;1053659;28;19912;-50
2021/07/05 02:04:01;;;;;;;;;;;;;;;13.20;100.00;95694.66;1053774;28;19934;-51
2021/07/05 02:04:31;;;;;;;;;;;;;;;13.25;100.00;95691.34;1053048;28;19988;-48
2021/07/05 02:05:03;;;;;;;;;;;;;;;13.27;100.00;95698.03;1053419;28;19916;-47
2021/07/05 02:05:35;;;;;;;;;;;;;;;13.26;100.00;95698.25;1053720;28;19968;-50
2021/07/05 02:06:05;;;;;;;;;;;;;;;13.24;100.00;95690.53;1053587;28;20253;-50
2021/07/05 02:06:36;;;;;;;;;;;;;;;13.25;100.00;95696.63;1053822;28;19918;-48
2021/07/05 02:07:06;;;;;;;;;;;;;;;13.23;100.00;95688.91;1053808;28;19908;-49
2021/07/05 02:07:37;;;;;;;;;;;;;;;13.23;100.00;95698.69;1053743;28;19962;-51
2021/07/05 02:08:07;;;;;;;;;;;;;;;13.24;100.00;95695.00;1053860;28;19919;-50
2021/07/05 02:08:37;;;;;;;;;;;;;;;13.24;100.00;95689.72;1053725;28;19965;-48
2021/07/05 02:09:08;;;;;;;;;;;;;;;13.23;100.00;95694.22;1053825;28;19951;-49
2021/07/05 02:09:38;;;;;;;;;;;;;;;13.21;100.00;95693.63;1053725;28;19994;-47
2021/07/05 02:10:09;;;;;;;;;;;;;;;13.21;100.00;95692.81;1053852;28;19908;-47
2021/07/05 02:10:40;;;;;;;;;;;;;;;13.24;100.00;95695.84;1052681;28;20292;-47
2021/07/05 02:11:10;;;;;;;;;;;;;;;13.23;100.00;95696.06;1053796;28;19995;-49
2021/07/05 02:11:40;;;;;;;;;;;;;;;13.22;100.00;95694.44;1053854;28;19916;-47
2021/07/05 02:12:11;;;;;;;;;;;;;;;13.21;100.00;95692.81;1053736;28;20363;-47
2021/07/05 02:12:42;;;;;;;;;;;;;;;13.20;100.00;95689.38;1053449;28;19928;-48
2021/07/05 02:13:16;;;;;;;;;;;;;;;13.23;100.00;95698.69;1053705;28;20379;-48
2021/07/05 02:13:46;;;;;;;;;;;;;;;13.26;100.00;95693.75;1053743;28;19981;-47
2021/07/05 02:14:16;;;;;;;;;;;;;;;13.25;100.00;95693.97;1061773;27;19949;-47
2021/07/05 02:14:46;;;;;;;;;;;;;;;13.25;100.00;95693.97;1061688;27;20633;-46
2021/07/05 02:15:17;;;;;;;;;;;;;;;13.27;100.00;95691.91;1062038;27;19930;-47
2021/07/05 02:15:47;;;;;;;;;;;;;;;13.25;100.00;95697.44;1061838;27;19912;-46
2021/07/05 02:16:18;;;;;;;;;;;;;;;13.25;100.00;95694.78;1053852;28;19912;-46
2021/07/05 02:16:48;;;;;;;;;;;;;;;13.25;100.00;95696.63;1053608;28;20382;-47
2021/07/05 02:17:18;;;;;;;;;;;;;;;13.24;100.00;95695.00;1053875;28;19920;-47
2021/07/05 02:17:49;;;;;;;;;;;;;;;13.22;100.00;95697.88;1053334;28;19934;-47
2021/07/05 02:18:19;;;;;;;;;;;;;;;13.20;100.00;95696.50;1053459;28;19909;-47
2021/07/05 02:18:49;;;;;;;;;;;;;;;13.21;100.00;95703.38;1053207;28;19912;-46
2021/07/05 02:19:19;;;;;;;;;;;;;;;13.22;100.00;95697.06;1053557;28;19920;-47
2021/07/05 02:19:50;;;;;;;;;;;;;;;13.23;100.00;95701.34;1053644;28;19912;-47
2021/07/05 02:20:21;;;;;;;;;;;;;;;13.24;100.00;95700.28;1053715;28;20291;-48
2021/07/05 02:20:52;;;;;;;;;;;;;;;13.24;100.00;95700.28;1053398;28;19912;-47
2021/07/05 02:21:22;;;;;;;;;;;;;;;13.23;100.00;95701.34;1053649;28;20013;-46
2021/07/05 02:21:52;;;;;;;;;;;;;;;13.23;100.00;95699.50;1061751;27;19916;-47
2021/07/05 02:22:22;;;;;;;;;;;;;;;13.22;100.00;95702.34;1061847;27;19908;-47
2021/07/05 02:22:53;;;;;;;;;;;;;;;13.22;100.00;95697.88;1061770;27;19908;-46
2021/07/05 02:23:23;;;;;;;;;;;;;;;13.19;100.00;95703.59;1061792;27;19919;-48
2021/07/05 02:23:53;;;;;;;;;;;;;;;13.18;100.00;95712.56;1053609;28;19920;-47
2021/07/05 02:24:24;;;;;;;;;;;;;;;13.20;100.00;95705.22;1053506;28;19934;-47
2021/07/05 02:24:54;;;;;;;;;;;;;;;13.18;100.00;95714.41;1053570;28;20353;-46
2021/07/05 02:25:28;;;;;;;;;;;;;;;13.18;100.00;95711.75;1053759;28;19912;-46
2021/07/05 02:25:58;;;;;;;;;;;;;;;13.16;100.00;95706.69;1053461;28;19934;-46
2021/07/05 02:26:29;;;;;;;;;;;;;;;13.17;100.00;95710.16;1053620;28;19977;-47
2021/07/05 02:26:59;;;;;;;;;;;;;;;13.17;100.00;95699.59;1053558;28;19989;-46
2021/07/05 02:27:30;;;;;;;;;;;;;;;13.18;100.00;95706.47;1053625;28;20459;-47
2021/07/05 02:28:10;;;;;;;;;;;;;;;13.22;100.00;95703.16;1053154;28;19915;-47
2021/07/05 02:28:41;;;;;;;;;;;;;;;13.21;100.00;95700.72;1053252;28;19930;-47
2021/07/05 02:29:11;;;;;;;;;;;;;;;13.22;100.00;95705.81;1053247;28;20600;-48
2021/07/05 02:29:41;;;;;;;;;;;;;;;13.17;100.00;95695.09;1052867;28;19958;-47
2021/07/05 02:30:12;;;;;;;;;;;;;;;13.18;100.00;95703.81;1052998;28;19912;-48
2021/07/05 02:30:43;;;;;;;;;;;;;;;13.20;100.00;95701.78;1052866;28;19908;-48
2021/07/05 02:31:14;;;;;;;;;;;;;;;13.19;100.00;95702.81;1052964;28;19977;-47
2021/07/05 02:31:44;;;;;;;;;;;;;;;13.14;100.00;95696.34;1052922;28;19912;-47
2021/07/05 02:32:14;;;;;;;;;;;;;;;13.14;100.00;95701.63;1053172;28;20350;-47
2021/07/05 02:32:45;;;;;;;;;;;;;;;13.16;100.00;95693.47;1053162;28;20579;-47
2021/07/05 02:33:16;;;;;;;;;;;;;;;13.17;100.00;95696.94;1053267;28;19938;-48
2021/07/05 02:33:47;;;;;;;;;;;;;;;13.16;100.00;95693.47;1053529;28;19908;-47
2021/07/05 02:34:17;;;;;;;;;;;;;;;13.16;100.00;95688.19;1053403;28;19916;-47
2021/07/05 02:34:47;;;;;;;;;;;;;;;13.15;100.00;95691.88;1053627;28;19920;-47
2021/07/05 02:35:20;;;;;;;;;;;;;;;13.15;100.00;95692.69;1053600;28;20337;-49
2021/07/05 02:35:50;;;;;;;;;;;;;;;13.15;100.00;95692.69;1053313;28;19913;-48
2021/07/05 02:36:20;;;;;;;;;;;;;;;13.15;100.00;95689.22;1053304;28;20355;-47
2021/07/05 02:36:50;;;;;;;;;;;;;;;13.13;100.00;95694.75;1053683;28;19908;-47
2021/07/05 02:37:21;;;;;;;;;;;;;;;13.15;100.00;95686.59;1053804;28;19920;-48